sensor_id;sensor_type;location;lat;lon;timestamp;P1;durP1;ratioP1;P2;durP2;ratioP2
14933;SDS011;7560;51.364;12.384;2023-05-01T00:03:18;28.90;;;17.30;;
14933;SDS011;7560;51.364;12.384;2023-05-01T00:08:21;48.92;;;26.02;;
14933;SDS011;7560;51.364;12.384;2023-05-01T00:13:23;61.85;;;32.95;;
14933;SDS011;7560;51.364;12.384;2023-05-01T00:18:25;77.47;;;38.70;;
14933;SDS011;7560;51.364;12.384;2023-05-01T00:23:27;71.43;;;34.78;;
14933;SDS011;7560;51.364;12.384;2023-05-01T00:28:28;55.80;;;29.05;;
14933;SDS011;7560;51.364;12.384;2023-05-01T00:33:30;47.17;;;25.83;;
14933;SDS011;7560;51.364;12.384;2023-05-01T00:38:32;41.75;;;21.55;;
14933;SDS011;7560;51.364;12.384;2023-05-01T00:43:33;27.13;;;15.95;;
14933;SDS011;7560;51.364;12.384;2023-05-01T00:48:36;26.20;;;14.48;;
14933;SDS011;7560;51.364;12.384;2023-05-01T00:53:41;13.75;;;9.20;;
14933;SDS011;7560;51.364;12.384;2023-05-01T00:58:44;13.77;;;8.25;;
14933;SDS011;7560;51.364;12.384;2023-05-01T01:03:49;9.40;;;6.50;;
14933;SDS011;7560;51.364;12.384;2023-05-01T01:14:27;12.65;;;7.22;;
14933;SDS011;7560;51.364;12.384;2023-05-01T01:19:48;9.70;;;6.45;;
14933;SDS011;7560;51.364;12.384;2023-05-01T01:31:04;9.13;;;6.43;;
14933;SDS011;7560;51.364;12.384;2023-05-01T01:36:19;10.52;;;6.72;;
14933;SDS011;7560;51.364;12.384;2023-05-01T01:41:40;10.57;;;6.22;;
14933;SDS011;7560;51.364;12.384;2023-05-01T01:46:48;11.32;;;6.82;;
14933;SDS011;7560;51.364;12.384;2023-05-01T01:51:53;11.05;;;6.63;;
14933;SDS011;7560;51.364;12.384;2023-05-01T01:56:56;10.45;;;6.78;;
14933;SDS011;7560;51.364;12.384;2023-05-01T02:02:02;11.13;;;6.65;;
14933;SDS011;7560;51.364;12.384;2023-05-01T02:07:05;11.20;;;6.53;;
14933;SDS011;7560;51.364;12.384;2023-05-01T02:12:07;9.23;;;6.22;;
14933;SDS011;7560;51.364;12.384;2023-05-01T02:17:11;11.40;;;6.50;;
14933;SDS011;7560;51.364;12.384;2023-05-01T02:22:14;13.70;;;8.45;;
14933;SDS011;7560;51.364;12.384;2023-05-01T02:27:40;12.27;;;7.25;;
14933;SDS011;7560;51.364;12.384;2023-05-01T02:32:46;13.43;;;7.20;;
14933;SDS011;7560;51.364;12.384;2023-05-01T02:37:48;10.65;;;6.53;;
14933;SDS011;7560;51.364;12.384;2023-05-01T02:42:50;12.35;;;7.00;;
14933;SDS011;7560;51.364;12.384;2023-05-01T02:47:53;12.15;;;6.50;;
14933;SDS011;7560;51.364;12.384;2023-05-01T02:52:58;10.25;;;7.05;;
14933;SDS011;7560;51.364;12.384;2023-05-01T02:58:01;10.73;;;6.47;;
14933;SDS011;7560;51.364;12.384;2023-05-01T03:03:02;11.77;;;6.90;;
14933;SDS011;7560;51.364;12.384;2023-05-01T03:08:04;9.82;;;6.43;;
14933;SDS011;7560;51.364;12.384;2023-05-01T03:13:06;10.95;;;6.82;;
14933;SDS011;7560;51.364;12.384;2023-05-01T03:18:08;10.20;;;6.68;;
14933;SDS011;7560;51.364;12.384;2023-05-01T03:23:10;9.40;;;6.50;;
14933;SDS011;7560;51.364;12.384;2023-05-01T03:28:12;11.93;;;6.95;;
14933;SDS011;7560;51.364;12.384;2023-05-01T03:33:14;10.30;;;6.28;;
14933;SDS011;7560;51.364;12.384;2023-05-01T03:38:16;9.63;;;6.45;;
14933;SDS011;7560;51.364;12.384;2023-05-01T03:43:19;9.77;;;5.95;;
14933;SDS011;7560;51.364;12.384;2023-05-01T03:48:20;13.15;;;7.55;;
14933;SDS011;7560;51.364;12.384;2023-05-01T03:53:22;10.02;;;6.35;;
14933;SDS011;7560;51.364;12.384;2023-05-01T03:58:24;11.65;;;6.80;;
14933;SDS011;7560;51.364;12.384;2023-05-01T04:03:26;11.90;;;7.13;;
14933;SDS011;7560;51.364;12.384;2023-05-01T04:08:28;13.70;;;7.10;;
14933;SDS011;7560;51.364;12.384;2023-05-01T04:13:30;14.27;;;7.40;;
14933;SDS011;7560;51.364;12.384;2023-05-01T04:18:32;13.43;;;8.27;;
14933;SDS011;7560;51.364;12.384;2023-05-01T04:23:34;12.73;;;7.95;;
14933;SDS011;7560;51.364;12.384;2023-05-01T04:28:35;16.05;;;8.73;;
14933;SDS011;7560;51.364;12.384;2023-05-01T04:33:39;15.02;;;9.15;;
14933;SDS011;7560;51.364;12.384;2023-05-01T04:38:40;14.25;;;8.80;;
14933;SDS011;7560;51.364;12.384;2023-05-01T04:43:43;16.65;;;9.75;;
14933;SDS011;7560;51.364;12.384;2023-05-01T04:48:44;14.43;;;9.20;;
14933;SDS011;7560;51.364;12.384;2023-05-01T04:53:46;19.98;;;10.23;;
14933;SDS011;7560;51.364;12.384;2023-05-01T04:58:48;17.15;;;10.90;;
14933;SDS011;7560;51.364;12.384;2023-05-01T05:03:50;19.30;;;12.02;;
14933;SDS011;7560;51.364;12.384;2023-05-01T05:08:52;19.95;;;13.05;;
14933;SDS011;7560;51.364;12.384;2023-05-01T05:13:54;22.13;;;12.82;;
14933;SDS011;7560;51.364;12.384;2023-05-01T05:18:56;21.67;;;13.50;;
14933;SDS011;7560;51.364;12.384;2023-05-01T05:23:58;24.48;;;15.00;;
14933;SDS011;7560;51.364;12.384;2023-05-01T05:28:59;26.83;;;14.95;;
14933;SDS011;7560;51.364;12.384;2023-05-01T05:34:01;21.08;;;15.27;;
14933;SDS011;7560;51.364;12.384;2023-05-01T05:39:03;22.83;;;15.20;;
14933;SDS011;7560;51.364;12.384;2023-05-01T05:44:05;23.00;;;15.02;;
14933;SDS011;7560;51.364;12.384;2023-05-01T05:49:07;23.55;;;14.25;;
14933;SDS011;7560;51.364;12.384;2023-05-01T05:54:08;22.38;;;14.30;;
14933;SDS011;7560;51.364;12.384;2023-05-01T05:59:10;22.25;;;13.43;;
14933;SDS011;7560;51.364;12.384;2023-05-01T06:04:12;19.40;;;13.10;;
14933;SDS011;7560;51.364;12.384;2023-05-01T06:09:15;48.13;;;33.65;;
14933;SDS011;7560;51.364;12.384;2023-05-01T06:14:19;21.15;;;14.30;;
14933;SDS011;7560;51.364;12.384;2023-05-01T06:19:20;20.38;;;12.68;;
14933;SDS011;7560;51.364;12.384;2023-05-01T06:24:22;20.30;;;12.40;;
14933;SDS011;7560;51.364;12.384;2023-05-01T06:29:24;20.30;;;13.00;;
14933;SDS011;7560;51.364;12.384;2023-05-01T06:34:25;18.42;;;12.38;;
14933;SDS011;7560;51.364;12.384;2023-05-01T06:39:27;17.63;;;11.60;;
14933;SDS011;7560;51.364;12.384;2023-05-01T06:44:29;15.90;;;11.70;;
14933;SDS011;7560;51.364;12.384;2023-05-01T06:49:33;19.08;;;11.60;;
14933;SDS011;7560;51.364;12.384;2023-05-01T06:54:34;18.40;;;11.65;;
14933;SDS011;7560;51.364;12.384;2023-05-01T06:59:36;20.02;;;11.98;;
14933;SDS011;7560;51.364;12.384;2023-05-01T07:04:38;15.07;;;11.05;;
14933;SDS011;7560;51.364;12.384;2023-05-01T07:09:40;15.77;;;10.27;;
14933;SDS011;7560;51.364;12.384;2023-05-01T07:14:41;15.77;;;11.10;;
14933;SDS011;7560;51.364;12.384;2023-05-01T07:19:43;16.05;;;10.75;;
14933;SDS011;7560;51.364;12.384;2023-05-01T07:24:45;20.05;;;11.90;;
14933;SDS011;7560;51.364;12.384;2023-05-01T07:29:46;15.30;;;11.05;;
14933;SDS011;7560;51.364;12.384;2023-05-01T07:34:48;15.63;;;11.00;;
14933;SDS011;7560;51.364;12.384;2023-05-01T07:39:50;15.27;;;10.82;;
14933;SDS011;7560;51.364;12.384;2023-05-01T07:44:52;16.50;;;10.70;;
14933;SDS011;7560;51.364;12.384;2023-05-01T07:49:54;17.38;;;11.32;;
14933;SDS011;7560;51.364;12.384;2023-05-01T07:54:56;15.98;;;10.25;;
14933;SDS011;7560;51.364;12.384;2023-05-01T07:59:58;16.33;;;11.23;;
14933;SDS011;7560;51.364;12.384;2023-05-01T08:05:00;16.90;;;11.25;;
14933;SDS011;7560;51.364;12.384;2023-05-01T08:10:03;18.90;;;10.93;;
14933;SDS011;7560;51.364;12.384;2023-05-01T08:15:05;18.65;;;10.95;;
14933;SDS011;7560;51.364;12.384;2023-05-01T08:20:08;15.75;;;10.55;;
14933;SDS011;7560;51.364;12.384;2023-05-01T08:25:10;16.73;;;10.55;;
14933;SDS011;7560;51.364;12.384;2023-05-01T08:30:12;15.40;;;10.65;;
14933;SDS011;7560;51.364;12.384;2023-05-01T08:35:13;15.57;;;9.88;;
14933;SDS011;7560;51.364;12.384;2023-05-01T08:40:15;15.35;;;10.20;;
14933;SDS011;7560;51.364;12.384;2023-05-01T08:45:17;16.55;;;9.82;;
14933;SDS011;7560;51.364;12.384;2023-05-01T08:50:22;14.70;;;9.23;;
14933;SDS011;7560;51.364;12.384;2023-05-01T08:55:24;13.48;;;8.25;;
14933;SDS011;7560;51.364;12.384;2023-05-01T09:00:28;11.90;;;8.90;;
14933;SDS011;7560;51.364;12.384;2023-05-01T09:05:31;16.15;;;10.88;;
14933;SDS011;7560;51.364;12.384;2023-05-01T09:10:35;14.13;;;10.27;;
14933;SDS011;7560;51.364;12.384;2023-05-01T09:15:42;14.70;;;9.43;;
14933;SDS011;7560;51.364;12.384;2023-05-01T09:20:44;13.60;;;9.25;;
14933;SDS011;7560;51.364;12.384;2023-05-01T09:25:47;14.40;;;8.77;;
14933;SDS011;7560;51.364;12.384;2023-05-01T09:30:52;11.20;;;8.15;;
14933;SDS011;7560;51.364;12.384;2023-05-01T09:35:54;11.73;;;8.18;;
14933;SDS011;7560;51.364;12.384;2023-05-01T09:41:02;10.32;;;7.15;;
14933;SDS011;7560;51.364;12.384;2023-05-01T09:56:32;10.45;;;7.00;;
14933;SDS011;7560;51.364;12.384;2023-05-01T10:01:46;9.57;;;7.10;;
14933;SDS011;7560;51.364;12.384;2023-05-01T10:06:50;10.00;;;6.75;;
14933;SDS011;7560;51.364;12.384;2023-05-01T10:11:53;12.77;;;6.88;;
14933;SDS011;7560;51.364;12.384;2023-05-01T10:16:59;8.27;;;6.03;;
14933;SDS011;7560;51.364;12.384;2023-05-01T10:22:01;9.25;;;6.57;;
14933;SDS011;7560;51.364;12.384;2023-05-01T10:27:03;8.93;;;6.53;;
14933;SDS011;7560;51.364;12.384;2023-05-01T10:32:06;9.85;;;6.10;;
14933;SDS011;7560;51.364;12.384;2023-05-01T10:37:12;7.47;;;5.28;;
14933;SDS011;7560;51.364;12.384;2023-05-01T10:42:21;9.10;;;5.78;;
14933;SDS011;7560;51.364;12.384;2023-05-01T10:52:25;6.82;;;4.90;;
14933;SDS011;7560;51.364;12.384;2023-05-01T10:57:43;6.55;;;4.53;;
14933;SDS011;7560;51.364;12.384;2023-05-01T11:02:46;7.00;;;4.57;;
14933;SDS011;7560;51.364;12.384;2023-05-01T11:07:55;8.70;;;4.70;;
14933;SDS011;7560;51.364;12.384;2023-05-01T11:19:01;7.05;;;4.57;;
14933;SDS011;7560;51.364;12.384;2023-05-01T11:24:03;7.03;;;4.22;;
14933;SDS011;7560;51.364;12.384;2023-05-01T11:29:09;7.05;;;4.60;;
14933;SDS011;7560;51.364;12.384;2023-05-01T11:34:12;7.00;;;4.07;;
14933;SDS011;7560;51.364;12.384;2023-05-01T11:39:14;6.90;;;3.85;;
14933;SDS011;7560;51.364;12.384;2023-05-01T11:44:17;5.25;;;3.85;;
14933;SDS011;7560;51.364;12.384;2023-05-01T11:49:24;6.20;;;4.10;;
14933;SDS011;7560;51.364;12.384;2023-05-01T11:54:29;7.53;;;4.95;;
14933;SDS011;7560;51.364;12.384;2023-05-01T11:59:31;8.25;;;5.03;;
14933;SDS011;7560;51.364;12.384;2023-05-01T12:04:33;7.22;;;5.05;;
14933;SDS011;7560;51.364;12.384;2023-05-01T12:09:35;7.80;;;5.40;;
14933;SDS011;7560;51.364;12.384;2023-05-01T12:14:38;9.20;;;5.80;;
14933;SDS011;7560;51.364;12.384;2023-05-01T12:19:46;5.75;;;4.82;;
14933;SDS011;7560;51.364;12.384;2023-05-01T12:24:49;5.93;;;4.75;;
14933;SDS011;7560;51.364;12.384;2023-05-01T12:29:52;6.53;;;5.30;;
14933;SDS011;7560;51.364;12.384;2023-05-01T12:34:55;8.00;;;5.38;;
14933;SDS011;7560;51.364;12.384;2023-05-01T12:39:57;7.72;;;4.88;;
14933;SDS011;7560;51.364;12.384;2023-05-01T12:44:59;7.90;;;5.68;;
14933;SDS011;7560;51.364;12.384;2023-05-01T12:50:02;7.57;;;4.97;;
14933;SDS011;7560;51.364;12.384;2023-05-01T12:55:04;6.55;;;4.45;;
14933;SDS011;7560;51.364;12.384;2023-05-01T13:00:08;7.93;;;4.65;;
14933;SDS011;7560;51.364;12.384;2023-05-01T13:05:10;9.07;;;4.55;;
14933;SDS011;7560;51.364;12.384;2023-05-01T13:10:12;6.05;;;5.10;;
14933;SDS011;7560;51.364;12.384;2023-05-01T13:15:22;9.60;;;4.75;;
14933;SDS011;7560;51.364;12.384;2023-05-01T13:20:24;6.57;;;4.57;;
14933;SDS011;7560;51.364;12.384;2023-05-01T13:25:29;7.53;;;5.20;;
14933;SDS011;7560;51.364;12.384;2023-05-01T13:30:31;6.57;;;4.55;;
14933;SDS011;7560;51.364;12.384;2023-05-01T13:35:34;7.55;;;5.13;;
14933;SDS011;7560;51.364;12.384;2023-05-01T13:40:36;7.80;;;4.68;;
14933;SDS011;7560;51.364;12.384;2023-05-01T13:45:39;6.88;;;5.20;;
14933;SDS011;7560;51.364;12.384;2023-05-01T13:50:41;9.90;;;5.88;;
14933;SDS011;7560;51.364;12.384;2023-05-01T13:55:43;6.43;;;5.40;;
14933;SDS011;7560;51.364;12.384;2023-05-01T14:00:45;8.25;;;5.47;;
14933;SDS011;7560;51.364;12.384;2023-05-01T14:05:47;9.25;;;5.70;;
14933;SDS011;7560;51.364;12.384;2023-05-01T14:10:49;7.35;;;5.57;;
14933;SDS011;7560;51.364;12.384;2023-05-01T14:15:50;8.27;;;5.88;;
14933;SDS011;7560;51.364;12.384;2023-05-01T14:20:52;8.68;;;5.15;;
14933;SDS011;7560;51.364;12.384;2023-05-01T14:25:54;6.22;;;5.40;;
14933;SDS011;7560;51.364;12.384;2023-05-01T14:30:56;7.72;;;5.50;;
14933;SDS011;7560;51.364;12.384;2023-05-01T14:35:58;7.50;;;5.47;;
14933;SDS011;7560;51.364;12.384;2023-05-01T14:41:00;8.70;;;5.50;;
14933;SDS011;7560;51.364;12.384;2023-05-01T14:46:01;5.43;;;4.78;;
14933;SDS011;7560;51.364;12.384;2023-05-01T14:51:03;8.00;;;5.03;;
14933;SDS011;7560;51.364;12.384;2023-05-01T14:56:10;7.78;;;5.20;;
14933;SDS011;7560;51.364;12.384;2023-05-01T15:01:12;6.97;;;5.38;;
14933;SDS011;7560;51.364;12.384;2023-05-01T15:06:15;6.55;;;5.15;;
14933;SDS011;7560;51.364;12.384;2023-05-01T15:11:17;7.00;;;5.07;;
14933;SDS011;7560;51.364;12.384;2023-05-01T15:16:20;7.78;;;5.28;;
14933;SDS011;7560;51.364;12.384;2023-05-01T15:21:22;6.13;;;4.85;;
14933;SDS011;7560;51.364;12.384;2023-05-01T15:26:24;6.60;;;5.90;;
14933;SDS011;7560;51.364;12.384;2023-05-01T15:31:26;6.38;;;5.43;;
14933;SDS011;7560;51.364;12.384;2023-05-01T15:36:27;8.35;;;5.75;;
14933;SDS011;7560;51.364;12.384;2023-05-01T15:41:29;9.15;;;6.22;;
14933;SDS011;7560;51.364;12.384;2023-05-01T15:46:31;7.88;;;5.80;;
14933;SDS011;7560;51.364;12.384;2023-05-01T15:51:33;7.85;;;5.55;;
14933;SDS011;7560;51.364;12.384;2023-05-01T15:56:36;6.93;;;5.60;;
14933;SDS011;7560;51.364;12.384;2023-05-01T16:01:38;7.10;;;5.78;;
14933;SDS011;7560;51.364;12.384;2023-05-01T16:06:40;10.02;;;5.75;;
14933;SDS011;7560;51.364;12.384;2023-05-01T16:11:42;9.82;;;5.55;;
14933;SDS011;7560;51.364;12.384;2023-05-01T16:16:44;7.60;;;5.10;;
14933;SDS011;7560;51.364;12.384;2023-05-01T16:21:46;6.30;;;4.97;;
14933;SDS011;7560;51.364;12.384;2023-05-01T16:26:48;7.47;;;5.35;;
14933;SDS011;7560;51.364;12.384;2023-05-01T16:31:50;6.55;;;4.72;;
14933;SDS011;7560;51.364;12.384;2023-05-01T16:36:52;7.50;;;5.10;;
14933;SDS011;7560;51.364;12.384;2023-05-01T16:41:54;7.28;;;5.03;;
14933;SDS011;7560;51.364;12.384;2023-05-01T16:46:57;8.20;;;5.22;;
14933;SDS011;7560;51.364;12.384;2023-05-01T16:52:00;7.53;;;5.20;;
14933;SDS011;7560;51.364;12.384;2023-05-01T16:57:04;7.38;;;5.97;;
14933;SDS011;7560;51.364;12.384;2023-05-01T17:02:06;8.05;;;6.38;;
14933;SDS011;7560;51.364;12.384;2023-05-01T17:07:08;8.07;;;6.07;;
14933;SDS011;7560;51.364;12.384;2023-05-01T17:12:10;8.13;;;5.88;;
14933;SDS011;7560;51.364;12.384;2023-05-01T17:17:12;7.97;;;5.47;;
14933;SDS011;7560;51.364;12.384;2023-05-01T17:22:13;10.65;;;6.60;;
14933;SDS011;7560;51.364;12.384;2023-05-01T17:27:15;9.27;;;6.38;;
14933;SDS011;7560;51.364;12.384;2023-05-01T17:32:17;9.50;;;6.60;;
14933;SDS011;7560;51.364;12.384;2023-05-01T17:37:36;9.48;;;6.45;;
14933;SDS011;7560;51.364;12.384;2023-05-01T17:42:40;10.18;;;6.93;;
14933;SDS011;7560;51.364;12.384;2023-05-01T17:47:42;9.55;;;6.45;;
14933;SDS011;7560;51.364;12.384;2023-05-01T17:52:45;9.40;;;6.15;;
14933;SDS011;7560;51.364;12.384;2023-05-01T17:57:46;7.72;;;5.85;;
14933;SDS011;7560;51.364;12.384;2023-05-01T18:02:48;6.85;;;5.82;;
14933;SDS011;7560;51.364;12.384;2023-05-01T18:07:50;9.25;;;7.00;;
14933;SDS011;7560;51.364;12.384;2023-05-01T18:12:52;8.90;;;7.25;;
14933;SDS011;7560;51.364;12.384;2023-05-01T18:17:54;8.27;;;6.78;;
14933;SDS011;7560;51.364;12.384;2023-05-01T18:22:56;9.43;;;7.22;;
14933;SDS011;7560;51.364;12.384;2023-05-01T18:27:58;11.82;;;8.57;;
14933;SDS011;7560;51.364;12.384;2023-05-01T18:33:00;8.13;;;6.47;;
14933;SDS011;7560;51.364;12.384;2023-05-01T18:38:02;13.32;;;8.98;;
14933;SDS011;7560;51.364;12.384;2023-05-01T18:43:03;10.85;;;7.15;;
14933;SDS011;7560;51.364;12.384;2023-05-01T18:48:05;10.75;;;6.72;;
14933;SDS011;7560;51.364;12.384;2023-05-01T18:53:08;11.20;;;7.47;;
14933;SDS011;7560;51.364;12.384;2023-05-01T18:58:10;9.98;;;6.90;;
14933;SDS011;7560;51.364;12.384;2023-05-01T19:03:12;9.07;;;6.78;;
14933;SDS011;7560;51.364;12.384;2023-05-01T19:08:14;9.80;;;6.63;;
14933;SDS011;7560;51.364;12.384;2023-05-01T19:13:15;7.32;;;6.25;;
14933;SDS011;7560;51.364;12.384;2023-05-01T19:18:17;8.93;;;6.65;;
14933;SDS011;7560;51.364;12.384;2023-05-01T19:23:21;10.57;;;5.90;;
14933;SDS011;7560;51.364;12.384;2023-05-01T19:28:23;7.50;;;5.80;;
14933;SDS011;7560;51.364;12.384;2023-05-01T19:33:26;7.60;;;5.13;;
14933;SDS011;7560;51.364;12.384;2023-05-01T19:38:32;6.55;;;5.80;;
14933;SDS011;7560;51.364;12.384;2023-05-01T19:43:34;7.13;;;5.57;;
14933;SDS011;7560;51.364;12.384;2023-05-01T19:48:36;6.63;;;5.05;;
14933;SDS011;7560;51.364;12.384;2023-05-01T19:53:38;7.68;;;5.47;;
14933;SDS011;7560;51.364;12.384;2023-05-01T19:58:40;6.22;;;5.22;;
14933;SDS011;7560;51.364;12.384;2023-05-01T20:03:42;9.00;;;5.60;;
14933;SDS011;7560;51.364;12.384;2023-05-01T20:08:44;7.22;;;5.63;;
14933;SDS011;7560;51.364;12.384;2023-05-01T20:13:47;9.93;;;6.68;;
14933;SDS011;7560;51.364;12.384;2023-05-01T20:18:48;9.77;;;6.68;;
14933;SDS011;7560;51.364;12.384;2023-05-01T20:23:50;8.02;;;6.38;;
14933;SDS011;7560;51.364;12.384;2023-05-01T20:28:52;6.80;;;6.10;;
14933;SDS011;7560;51.364;12.384;2023-05-01T20:33:54;7.45;;;5.45;;
14933;SDS011;7560;51.364;12.384;2023-05-01T20:38:56;7.75;;;5.63;;
14933;SDS011;7560;51.364;12.384;2023-05-01T20:43:58;8.55;;;7.00;;
14933;SDS011;7560;51.364;12.384;2023-05-01T20:49:01;8.98;;;6.78;;
14933;SDS011;7560;51.364;12.384;2023-05-01T20:54:02;9.65;;;6.90;;
14933;SDS011;7560;51.364;12.384;2023-05-01T20:59:05;9.15;;;7.22;;
14933;SDS011;7560;51.364;12.384;2023-05-01T21:04:07;11.38;;;7.45;;
14933;SDS011;7560;51.364;12.384;2023-05-01T21:09:09;9.82;;;7.55;;
14933;SDS011;7560;51.364;12.384;2023-05-01T21:14:14;13.10;;;7.82;;
14933;SDS011;7560;51.364;12.384;2023-05-01T21:19:16;9.93;;;8.13;;
14933;SDS011;7560;51.364;12.384;2023-05-01T21:24:22;10.98;;;8.10;;
14933;SDS011;7560;51.364;12.384;2023-05-01T21:29:25;10.90;;;7.88;;
14933;SDS011;7560;51.364;12.384;2023-05-01T21:34:28;10.13;;;8.50;;
14933;SDS011;7560;51.364;12.384;2023-05-01T21:39:30;10.15;;;7.90;;
14933;SDS011;7560;51.364;12.384;2023-05-01T21:44:31;10.23;;;8.30;;
14933;SDS011;7560;51.364;12.384;2023-05-01T21:49:33;9.60;;;7.65;;
14933;SDS011;7560;51.364;12.384;2023-05-01T21:54:35;9.95;;;7.38;;
14933;SDS011;7560;51.364;12.384;2023-05-01T21:59:38;12.35;;;7.90;;
14933;SDS011;7560;51.364;12.384;2023-05-01T22:04:40;12.02;;;7.78;;
14933;SDS011;7560;51.364;12.384;2023-05-01T22:09:42;10.02;;;7.93;;
14933;SDS011;7560;51.364;12.384;2023-05-01T22:14:45;10.52;;;8.07;;
14933;SDS011;7560;51.364;12.384;2023-05-01T22:19:48;10.32;;;7.97;;
14933;SDS011;7560;51.364;12.384;2023-05-01T22:24:51;9.57;;;7.63;;
14933;SDS011;7560;51.364;12.384;2023-05-01T22:29:53;13.38;;;7.78;;
14933;SDS011;7560;51.364;12.384;2023-05-01T22:34:54;9.57;;;7.53;;
14933;SDS011;7560;51.364;12.384;2023-05-01T22:39:56;9.15;;;7.40;;
14933;SDS011;7560;51.364;12.384;2023-05-01T22:44:58;10.25;;;7.38;;
14933;SDS011;7560;51.364;12.384;2023-05-01T22:50:00;10.52;;;7.72;;
14933;SDS011;7560;51.364;12.384;2023-05-01T22:55:02;10.60;;;7.60;;
14933;SDS011;7560;51.364;12.384;2023-05-01T23:00:05;11.88;;;7.70;;
14933;SDS011;7560;51.364;12.384;2023-05-01T23:05:08;11.15;;;7.25;;
14933;SDS011;7560;51.364;12.384;2023-05-01T23:10:10;10.88;;;7.75;;
14933;SDS011;7560;51.364;12.384;2023-05-01T23:15:13;9.20;;;7.38;;
14933;SDS011;7560;51.364;12.384;2023-05-01T23:20:22;7.85;;;6.53;;
14933;SDS011;7560;51.364;12.384;2023-05-01T23:25:24;8.85;;;6.13;;
14933;SDS011;7560;51.364;12.384;2023-05-01T23:30:26;7.53;;;6.20;;
14933;SDS011;7560;51.364;12.384;2023-05-01T23:35:28;6.95;;;6.22;;
14933;SDS011;7560;51.364;12.384;2023-05-01T23:40:30;9.63;;;6.57;;
14933;SDS011;7560;51.364;12.384;2023-05-01T23:45:32;7.32;;;5.72;;
14933;SDS011;7560;51.364;12.384;2023-05-01T23:50:34;7.28;;;5.65;;
14933;SDS011;7560;51.364;12.384;2023-05-01T23:55:36;7.80;;;5.57;;
